sensor_id;sensor_type;location;lat;lon;timestamp;temperature;humidity
14737;DHT22;7459;53.590;10.062;2023-02-13T00:02:17;7.30;99.90
14737;DHT22;7459;53.590;10.062;2023-02-13T00:04:43;7.20;99.90
14737;DHT22;7459;53.590;10.062;2023-02-13T00:07:09;7.30;99.90
14737;DHT22;7459;53.590;10.062;2023-02-13T00:09:39;7.30;99.90
14737;DHT22;7459;53.590;10.062;2023-02-13T00:12:06;7.30;99.90
14737;DHT22;7459;53.590;10.062;2023-02-13T00:14:36;7.30;99.90
14737;DHT22;7459;53.590;10.062;2023-02-13T00:17:03;7.30;99.90
14737;DHT22;7459;53.590;10.062;2023-02-13T00:19:30;7.20;99.90
14737;DHT22;7459;53.590;10.062;2023-02-13T00:21:55;7.20;99.90
14737;DHT22;7459;53.590;10.062;2023-02-13T00:24:21;7.20;99.90
14737;DHT22;7459;53.590;10.062;2023-02-13T00:26:47;7.20;99.90
14737;DHT22;7459;53.590;10.062;2023-02-13T00:29:13;7.20;99.90
14737;DHT22;7459;53.590;10.062;2023-02-13T00:31:38;7.20;99.90
14737;DHT22;7459;53.590;10.062;2023-02-13T00:34:04;7.20;99.90
14737;DHT22;7459;53.590;10.062;2023-02-13T00:36:30;7.20;99.90
14737;DHT22;7459;53.590;10.062;2023-02-13T00:38:56;7.20;99.90
14737;DHT22;7459;53.590;10.062;2023-02-13T00:41:22;7.20;99.90
14737;DHT22;7459;53.590;10.062;2023-02-13T00:43:48;7.20;99.90
14737;DHT22;7459;53.590;10.062;2023-02-13T00:46:15;7.20;99.90
14737;DHT22;7459;53.590;10.062;2023-02-13T00:48:41;7.20;99.90
14737;DHT22;7459;53.590;10.062;2023-02-13T00:51:07;7.20;99.90
14737;DHT22;7459;53.590;10.062;2023-02-13T00:53:34;7.20;99.90
14737;DHT22;7459;53.590;10.062;2023-02-13T00:56:01;7.20;99.90
14737;DHT22;7459;53.590;10.062;2023-02-13T00:58:27;7.20;99.90
14737;DHT22;7459;53.590;10.062;2023-02-13T01:00:53;7.20;99.90
14737;DHT22;7459;53.590;10.062;2023-02-13T01:03:20;7.20;99.90
14737;DHT22;7459;53.590;10.062;2023-02-13T01:05:47;7.20;99.90
14737;DHT22;7459;53.590;10.062;2023-02-13T01:08:15;7.20;99.90
14737;DHT22;7459;53.590;10.062;2023-02-13T01:10:43;7.20;99.90
14737;DHT22;7459;53.590;10.062;2023-02-13T01:13:09;7.20;99.90
14737;DHT22;7459;53.590;10.062;2023-02-13T01:15:35;7.20;99.90
14737;DHT22;7459;53.590;10.062;2023-02-13T01:18:02;7.20;99.90
14737;DHT22;7459;53.590;10.062;2023-02-13T01:20:28;7.20;99.90
14737;DHT22;7459;53.590;10.062;2023-02-13T01:22:55;7.20;99.90
14737;DHT22;7459;53.590;10.062;2023-02-13T01:25:21;7.20;99.90
14737;DHT22;7459;53.590;10.062;2023-02-13T01:27:47;7.10;99.90
14737;DHT22;7459;53.590;10.062;2023-02-13T01:30:15;7.10;99.90
14737;DHT22;7459;53.590;10.062;2023-02-13T01:32:43;7.20;99.90
14737;DHT22;7459;53.590;10.062;2023-02-13T01:35:11;7.20;99.90
14737;DHT22;7459;53.590;10.062;2023-02-13T01:37:38;7.10;99.90
14737;DHT22;7459;53.590;10.062;2023-02-13T01:40:05;7.20;99.90
14737;DHT22;7459;53.590;10.062;2023-02-13T01:42:34;7.10;99.90
14737;DHT22;7459;53.590;10.062;2023-02-13T01:45:04;7.20;99.90
14737;DHT22;7459;53.590;10.062;2023-02-13T01:47:39;7.10;99.90
14737;DHT22;7459;53.590;10.062;2023-02-13T01:52:40;7.20;99.90
14737;DHT22;7459;53.590;10.062;2023-02-13T01:55:08;7.10;99.90
14737;DHT22;7459;53.590;10.062;2023-02-13T01:57:34;7.20;99.90
14737;DHT22;7459;53.590;10.062;2023-02-13T02:00:12;7.20;99.90
14737;DHT22;7459;53.590;10.062;2023-02-13T02:02:46;7.10;99.90
14737;DHT22;7459;53.590;10.062;2023-02-13T02:05:15;7.10;99.90
14737;DHT22;7459;53.590;10.062;2023-02-13T02:07:43;7.10;99.90
14737;DHT22;7459;53.590;10.062;2023-02-13T02:10:18;7.10;99.90
14737;DHT22;7459;53.590;10.062;2023-02-13T02:12:59;7.10;99.90
14737;DHT22;7459;53.590;10.062;2023-02-13T02:15:28;7.10;99.90
14737;DHT22;7459;53.590;10.062;2023-02-13T02:17:54;7.10;99.90
14737;DHT22;7459;53.590;10.062;2023-02-13T02:29:49;7.10;99.90
14737;DHT22;7459;53.590;10.062;2023-02-13T02:32:55;7.10;99.90
14737;DHT22;7459;53.590;10.062;2023-02-13T02:35:50;7.10;99.90
14737;DHT22;7459;53.590;10.062;2023-02-13T02:44:36;7.00;99.90
14737;DHT22;7459;53.590;10.062;2023-02-13T02:47:12;7.00;99.90
14737;DHT22;7459;53.590;10.062;2023-02-13T02:53:17;7.00;99.90
14737;DHT22;7459;53.590;10.062;2023-02-13T02:58:47;7.00;99.90
14737;DHT22;7459;53.590;10.062;2023-02-13T03:01:36;7.00;99.90
14737;DHT22;7459;53.590;10.062;2023-02-13T03:04:35;7.00;99.90
14737;DHT22;7459;53.590;10.062;2023-02-13T03:07:22;7.00;99.90
14737;DHT22;7459;53.590;10.062;2023-02-13T03:09:52;7.00;99.90
14737;DHT22;7459;53.590;10.062;2023-02-13T03:12:53;7.00;99.90
14737;DHT22;7459;53.590;10.062;2023-02-13T03:15:41;7.00;99.90
14737;DHT22;7459;53.590;10.062;2023-02-13T03:18:29;7.00;99.90
14737;DHT22;7459;53.590;10.062;2023-02-13T03:21:20;7.00;99.90
14737;DHT22;7459;53.590;10.062;2023-02-13T03:24:24;7.00;99.90
14737;DHT22;7459;53.590;10.062;2023-02-13T03:27:08;7.00;99.90
14737;DHT22;7459;53.590;10.062;2023-02-13T03:29:48;7.00;99.90
14737;DHT22;7459;53.590;10.062;2023-02-13T03:32:38;7.00;99.90
14737;DHT22;7459;53.590;10.062;2023-02-13T03:38:24;7.00;99.90
14737;DHT22;7459;53.590;10.062;2023-02-13T03:41:06;7.00;99.90
14737;DHT22;7459;53.590;10.062;2023-02-13T03:46:40;7.00;99.90
14737;DHT22;7459;53.590;10.062;2023-02-13T03:52:32;7.00;99.90
14737;DHT22;7459;53.590;10.062;2023-02-13T03:55:21;7.00;99.90
14737;DHT22;7459;53.590;10.062;2023-02-13T03:58:12;7.00;99.90
14737;DHT22;7459;53.590;10.062;2023-02-13T04:00:59;6.90;99.90
14737;DHT22;7459;53.590;10.062;2023-02-13T04:03:57;6.90;99.90
14737;DHT22;7459;53.590;10.062;2023-02-13T04:06:37;6.90;99.90
14737;DHT22;7459;53.590;10.062;2023-02-13T04:09:26;6.90;99.90
14737;DHT22;7459;53.590;10.062;2023-02-13T04:15:02;6.90;99.90
14737;DHT22;7459;53.590;10.062;2023-02-13T04:17:40;6.90;99.90
14737;DHT22;7459;53.590;10.062;2023-02-13T04:20:17;6.90;99.90
14737;DHT22;7459;53.590;10.062;2023-02-13T04:22:45;6.90;99.90
14737;DHT22;7459;53.590;10.062;2023-02-13T04:25:14;6.90;99.90
14737;DHT22;7459;53.590;10.062;2023-02-13T04:27:41;6.90;99.90
14737;DHT22;7459;53.590;10.062;2023-02-13T04:30:08;6.90;99.90
14737;DHT22;7459;53.590;10.062;2023-02-13T04:32:34;6.90;99.90
14737;DHT22;7459;53.590;10.062;2023-02-13T04:35:00;6.90;99.90
14737;DHT22;7459;53.590;10.062;2023-02-13T04:37:26;6.90;99.90
14737;DHT22;7459;53.590;10.062;2023-02-13T04:39:51;6.90;99.90
14737;DHT22;7459;53.590;10.062;2023-02-13T04:42:17;6.90;99.90
14737;DHT22;7459;53.590;10.062;2023-02-13T04:44:43;6.90;99.90
14737;DHT22;7459;53.590;10.062;2023-02-13T04:47:08;6.90;99.90
14737;DHT22;7459;53.590;10.062;2023-02-13T04:49:34;6.90;99.90
14737;DHT22;7459;53.590;10.062;2023-02-13T04:52:00;6.90;99.90
14737;DHT22;7459;53.590;10.062;2023-02-13T04:54:26;6.90;99.90
14737;DHT22;7459;53.590;10.062;2023-02-13T04:56:51;6.90;99.90
14737;DHT22;7459;53.590;10.062;2023-02-13T04:59:18;6.90;99.90
14737;DHT22;7459;53.590;10.062;2023-02-13T05:01:43;6.80;99.90
14737;DHT22;7459;53.590;10.062;2023-02-13T05:04:09;6.90;99.90
14737;DHT22;7459;53.590;10.062;2023-02-13T05:06:35;6.90;99.90
14737;DHT22;7459;53.590;10.062;2023-02-13T05:09:02;6.90;99.90
14737;DHT22;7459;53.590;10.062;2023-02-13T05:11:28;6.90;99.90
14737;DHT22;7459;53.590;10.062;2023-02-13T05:13:54;6.90;99.90
14737;DHT22;7459;53.590;10.062;2023-02-13T05:16:19;6.90;99.90
14737;DHT22;7459;53.590;10.062;2023-02-13T05:18:45;6.90;99.90
14737;DHT22;7459;53.590;10.062;2023-02-13T05:21:11;6.90;99.90
14737;DHT22;7459;53.590;10.062;2023-02-13T05:23:55;6.90;99.90
14737;DHT22;7459;53.590;10.062;2023-02-13T05:26:21;6.90;99.90
14737;DHT22;7459;53.590;10.062;2023-02-13T05:28:46;6.90;99.90
14737;DHT22;7459;53.590;10.062;2023-02-13T05:31:31;6.90;99.90
14737;DHT22;7459;53.590;10.062;2023-02-13T05:33:57;6.90;99.90
14737;DHT22;7459;53.590;10.062;2023-02-13T05:36:22;7.00;99.90
14737;DHT22;7459;53.590;10.062;2023-02-13T05:38:48;6.90;99.90
14737;DHT22;7459;53.590;10.062;2023-02-13T05:41:14;7.00;99.90
14737;DHT22;7459;53.590;10.062;2023-02-13T05:43:39;7.00;99.90
14737;DHT22;7459;53.590;10.062;2023-02-13T05:46:07;7.00;99.90
14737;DHT22;7459;53.590;10.062;2023-02-13T05:48:34;7.00;99.90
14737;DHT22;7459;53.590;10.062;2023-02-13T05:51:00;6.90;99.90
14737;DHT22;7459;53.590;10.062;2023-02-13T05:53:25;6.90;99.90
14737;DHT22;7459;53.590;10.062;2023-02-13T05:55:51;6.90;99.90
14737;DHT22;7459;53.590;10.062;2023-02-13T05:58:18;6.90;99.90
14737;DHT22;7459;53.590;10.062;2023-02-13T06:00:44;7.00;99.90
14737;DHT22;7459;53.590;10.062;2023-02-13T06:03:10;7.10;99.90
14737;DHT22;7459;53.590;10.062;2023-02-13T06:05:36;7.10;99.90
14737;DHT22;7459;53.590;10.062;2023-02-13T06:08:02;7.20;99.90
14737;DHT22;7459;53.590;10.062;2023-02-13T06:10:28;7.20;99.90
14737;DHT22;7459;53.590;10.062;2023-02-13T06:12:53;7.20;99.90
14737;DHT22;7459;53.590;10.062;2023-02-13T06:15:19;7.20;99.90
14737;DHT22;7459;53.590;10.062;2023-02-13T06:17:45;7.30;99.90
14737;DHT22;7459;53.590;10.062;2023-02-13T06:20:11;7.30;99.90
14737;DHT22;7459;53.590;10.062;2023-02-13T06:22:36;7.30;99.90
14737;DHT22;7459;53.590;10.062;2023-02-13T06:25:02;7.30;99.90
14737;DHT22;7459;53.590;10.062;2023-02-13T06:27:28;7.30;99.90
14737;DHT22;7459;53.590;10.062;2023-02-13T06:29:54;7.30;99.90
14737;DHT22;7459;53.590;10.062;2023-02-13T06:32:19;7.30;99.90
14737;DHT22;7459;53.590;10.062;2023-02-13T06:34:45;7.20;99.90
14737;DHT22;7459;53.590;10.062;2023-02-13T06:37:11;7.30;99.90
14737;DHT22;7459;53.590;10.062;2023-02-13T06:39:36;7.20;99.90
14737;DHT22;7459;53.590;10.062;2023-02-13T06:42:02;7.20;99.90
14737;DHT22;7459;53.590;10.062;2023-02-13T06:44:28;7.20;99.90
14737;DHT22;7459;53.590;10.062;2023-02-13T06:46:53;7.30;99.90
14737;DHT22;7459;53.590;10.062;2023-02-13T06:49:19;7.30;99.90
14737;DHT22;7459;53.590;10.062;2023-02-13T06:51:45;7.30;99.90
14737;DHT22;7459;53.590;10.062;2023-02-13T06:54:10;7.30;99.90
14737;DHT22;7459;53.590;10.062;2023-02-13T06:56:36;7.30;99.90
14737;DHT22;7459;53.590;10.062;2023-02-13T06:59:02;7.30;99.90
14737;DHT22;7459;53.590;10.062;2023-02-13T07:01:27;7.30;99.90
14737;DHT22;7459;53.590;10.062;2023-02-13T07:03:53;7.30;99.90
14737;DHT22;7459;53.590;10.062;2023-02-13T07:06:20;7.30;99.90
14737;DHT22;7459;53.590;10.062;2023-02-13T07:08:46;7.30;99.90
14737;DHT22;7459;53.590;10.062;2023-02-13T07:11:18;7.30;99.90
14737;DHT22;7459;53.590;10.062;2023-02-13T07:13:44;7.20;99.90
14737;DHT22;7459;53.590;10.062;2023-02-13T07:16:10;7.20;99.90
14737;DHT22;7459;53.590;10.062;2023-02-13T07:18:36;7.20;99.90
14737;DHT22;7459;53.590;10.062;2023-02-13T07:21:01;7.20;99.90
14737;DHT22;7459;53.590;10.062;2023-02-13T07:23:27;7.20;99.90
14737;DHT22;7459;53.590;10.062;2023-02-13T07:25:53;7.20;99.90
14737;DHT22;7459;53.590;10.062;2023-02-13T07:28:18;7.20;99.90
14737;DHT22;7459;53.590;10.062;2023-02-13T07:30:44;7.20;99.90
14737;DHT22;7459;53.590;10.062;2023-02-13T07:33:10;7.20;99.90
14737;DHT22;7459;53.590;10.062;2023-02-13T07:35:35;7.20;99.90
14737;DHT22;7459;53.590;10.062;2023-02-13T07:38:03;7.20;99.90
14737;DHT22;7459;53.590;10.062;2023-02-13T07:40:29;7.20;99.90
14737;DHT22;7459;53.590;10.062;2023-02-13T07:42:55;7.10;99.90
14737;DHT22;7459;53.590;10.062;2023-02-13T07:45:21;7.10;99.90
14737;DHT22;7459;53.590;10.062;2023-02-13T07:47:47;7.10;99.90
14737;DHT22;7459;53.590;10.062;2023-02-13T07:50:12;7.00;99.90
14737;DHT22;7459;53.590;10.062;2023-02-13T07:52:38;7.10;99.90
14737;DHT22;7459;53.590;10.062;2023-02-13T07:55:04;7.10;99.90
14737;DHT22;7459;53.590;10.062;2023-02-13T07:57:30;7.10;99.90
14737;DHT22;7459;53.590;10.062;2023-02-13T07:59:56;7.20;99.90
14737;DHT22;7459;53.590;10.062;2023-02-13T08:02:22;7.20;99.90
14737;DHT22;7459;53.590;10.062;2023-02-13T08:04:48;7.20;99.90
14737;DHT22;7459;53.590;10.062;2023-02-13T08:07:14;7.20;99.90
14737;DHT22;7459;53.590;10.062;2023-02-13T08:09:44;7.30;99.90
14737;DHT22;7459;53.590;10.062;2023-02-13T08:12:29;7.30;99.90
14737;DHT22;7459;53.590;10.062;2023-02-13T08:14:56;7.30;99.90
14737;DHT22;7459;53.590;10.062;2023-02-13T08:17:21;7.20;99.90
14737;DHT22;7459;53.590;10.062;2023-02-13T08:19:47;7.20;99.90
14737;DHT22;7459;53.590;10.062;2023-02-13T08:22:13;7.20;99.90
14737;DHT22;7459;53.590;10.062;2023-02-13T08:24:39;7.30;99.90
14737;DHT22;7459;53.590;10.062;2023-02-13T08:27:05;7.20;99.90
14737;DHT22;7459;53.590;10.062;2023-02-13T08:29:30;7.30;99.90
14737;DHT22;7459;53.590;10.062;2023-02-13T08:31:57;7.20;99.90
14737;DHT22;7459;53.590;10.062;2023-02-13T08:34:22;7.20;99.90
14737;DHT22;7459;53.590;10.062;2023-02-13T08:36:48;7.20;99.90
14737;DHT22;7459;53.590;10.062;2023-02-13T08:39:14;7.30;99.90
14737;DHT22;7459;53.590;10.062;2023-02-13T08:41:39;7.30;99.90
14737;DHT22;7459;53.590;10.062;2023-02-13T08:44:06;7.20;99.90
14737;DHT22;7459;53.590;10.062;2023-02-13T08:46:32;7.20;99.90
14737;DHT22;7459;53.590;10.062;2023-02-13T08:48:57;7.20;99.90
14737;DHT22;7459;53.590;10.062;2023-02-13T08:51:23;7.20;99.90
14737;DHT22;7459;53.590;10.062;2023-02-13T08:53:49;7.20;99.90
14737;DHT22;7459;53.590;10.062;2023-02-13T08:56:14;7.20;99.90
14737;DHT22;7459;53.590;10.062;2023-02-13T08:58:41;7.30;99.90
14737;DHT22;7459;53.590;10.062;2023-02-13T09:01:07;7.30;99.90
14737;DHT22;7459;53.590;10.062;2023-02-13T09:03:34;7.30;99.90
14737;DHT22;7459;53.590;10.062;2023-02-13T09:06:00;7.40;99.90
14737;DHT22;7459;53.590;10.062;2023-02-13T09:08:27;7.40;99.90
14737;DHT22;7459;53.590;10.062;2023-02-13T09:11:00;7.40;99.90
14737;DHT22;7459;53.590;10.062;2023-02-13T09:13:31;7.30;99.90
14737;DHT22;7459;53.590;10.062;2023-02-13T09:15:59;7.30;99.90
14737;DHT22;7459;53.590;10.062;2023-02-13T09:18:26;7.30;99.90
14737;DHT22;7459;53.590;10.062;2023-02-13T09:21:07;7.30;99.90
14737;DHT22;7459;53.590;10.062;2023-02-13T09:23:37;7.30;99.90
14737;DHT22;7459;53.590;10.062;2023-02-13T09:26:09;7.40;99.90
14737;DHT22;7459;53.590;10.062;2023-02-13T09:28:36;7.40;99.90
14737;DHT22;7459;53.590;10.062;2023-02-13T09:31:07;7.40;99.90
14737;DHT22;7459;53.590;10.062;2023-02-13T09:33:33;7.40;99.90
14737;DHT22;7459;53.590;10.062;2023-02-13T09:36:06;7.40;99.90
14737;DHT22;7459;53.590;10.062;2023-02-13T09:38:33;7.40;99.90
14737;DHT22;7459;53.590;10.062;2023-02-13T09:41:18;7.40;99.90
14737;DHT22;7459;53.590;10.062;2023-02-13T09:43:56;7.40;99.90
14737;DHT22;7459;53.590;10.062;2023-02-13T09:46:35;7.40;99.90
14737;DHT22;7459;53.590;10.062;2023-02-13T09:49:26;7.30;99.90
14737;DHT22;7459;53.590;10.062;2023-02-13T09:51:56;7.30;99.90
14737;DHT22;7459;53.590;10.062;2023-02-13T09:54:22;7.30;99.90
14737;DHT22;7459;53.590;10.062;2023-02-13T09:57:00;7.30;99.90
14737;DHT22;7459;53.590;10.062;2023-02-13T10:02:52;7.30;99.90
14737;DHT22;7459;53.590;10.062;2023-02-13T10:12:21;7.40;99.90
14737;DHT22;7459;53.590;10.062;2023-02-13T10:17:56;7.40;99.90
14737;DHT22;7459;53.590;10.062;2023-02-13T10:20:35;7.40;99.90
14737;DHT22;7459;53.590;10.062;2023-02-13T10:23:26;7.50;99.90
14737;DHT22;7459;53.590;10.062;2023-02-13T10:26:06;7.50;99.90
14737;DHT22;7459;53.590;10.062;2023-02-13T10:28:39;7.50;99.90
14737;DHT22;7459;53.590;10.062;2023-02-13T10:31:16;7.50;99.90
14737;DHT22;7459;53.590;10.062;2023-02-13T10:33:48;7.60;99.90
14737;DHT22;7459;53.590;10.062;2023-02-13T10:36:27;7.60;99.90
14737;DHT22;7459;53.590;10.062;2023-02-13T10:39:00;7.60;99.90
14737;DHT22;7459;53.590;10.062;2023-02-13T10:41:36;7.50;99.90
14737;DHT22;7459;53.590;10.062;2023-02-13T10:47:14;7.50;99.90
14737;DHT22;7459;53.590;10.062;2023-02-13T10:56:07;7.60;99.90
14737;DHT22;7459;53.590;10.062;2023-02-13T11:01:46;7.60;99.90
14737;DHT22;7459;53.590;10.062;2023-02-13T11:04:27;7.60;99.90
14737;DHT22;7459;53.590;10.062;2023-02-13T11:06:58;7.60;99.90
14737;DHT22;7459;53.590;10.062;2023-02-13T11:09:26;7.60;99.90
14737;DHT22;7459;53.590;10.062;2023-02-13T11:11:53;7.60;99.90
14737;DHT22;7459;53.590;10.062;2023-02-13T11:14:24;7.60;99.90
14737;DHT22;7459;53.590;10.062;2023-02-13T11:16:57;7.60;99.90
14737;DHT22;7459;53.590;10.062;2023-02-13T11:19:47;7.70;99.90
14737;DHT22;7459;53.590;10.062;2023-02-13T11:22:30;7.60;99.90
14737;DHT22;7459;53.590;10.062;2023-02-13T11:25:06;7.60;99.90
14737;DHT22;7459;53.590;10.062;2023-02-13T11:27:42;7.70;99.90
14737;DHT22;7459;53.590;10.062;2023-02-13T11:30:35;7.70;99.90
14737;DHT22;7459;53.590;10.062;2023-02-13T11:35:46;7.70;99.90
14737;DHT22;7459;53.590;10.062;2023-02-13T11:38:22;7.70;99.90
14737;DHT22;7459;53.590;10.062;2023-02-13T11:40:52;7.70;99.90
14737;DHT22;7459;53.590;10.062;2023-02-13T11:46:21;7.70;99.90
14737;DHT22;7459;53.590;10.062;2023-02-13T11:49:00;7.80;99.90
14737;DHT22;7459;53.590;10.062;2023-02-13T11:54:33;7.80;99.90
14737;DHT22;7459;53.590;10.062;2023-02-13T11:57:20;7.80;99.90
14737;DHT22;7459;53.590;10.062;2023-02-13T11:59:54;7.70;99.90
14737;DHT22;7459;53.590;10.062;2023-02-13T12:02:25;7.80;99.90
14737;DHT22;7459;53.590;10.062;2023-02-13T12:04:54;7.80;99.90
14737;DHT22;7459;53.590;10.062;2023-02-13T12:07:40;7.70;99.90
14737;DHT22;7459;53.590;10.062;2023-02-13T12:10:24;7.70;99.90
14737;DHT22;7459;53.590;10.062;2023-02-13T12:13:14;7.70;99.90
14737;DHT22;7459;53.590;10.062;2023-02-13T12:15:45;7.80;99.90
14737;DHT22;7459;53.590;10.062;2023-02-13T12:18:41;7.80;99.90
14737;DHT22;7459;53.590;10.062;2023-02-13T12:24:47;7.80;99.90
14737;DHT22;7459;53.590;10.062;2023-02-13T12:30:28;7.80;99.90
14737;DHT22;7459;53.590;10.062;2023-02-13T12:33:21;7.80;99.90
14737;DHT22;7459;53.590;10.062;2023-02-13T12:36:00;7.80;99.90
14737;DHT22;7459;53.590;10.062;2023-02-13T12:53:01;7.80;99.90
14737;DHT22;7459;53.590;10.062;2023-02-13T13:01:17;7.80;99.90
14737;DHT22;7459;53.590;10.062;2023-02-13T13:14:03;7.80;99.90
14737;DHT22;7459;53.590;10.062;2023-02-13T13:22:40;7.70;99.90
14737;DHT22;7459;53.590;10.062;2023-02-13T13:25:17;7.70;99.90
14737;DHT22;7459;53.590;10.062;2023-02-13T13:27:52;7.80;99.90
14737;DHT22;7459;53.590;10.062;2023-02-13T13:30:31;7.70;99.90
14737;DHT22;7459;53.590;10.062;2023-02-13T13:33:30;7.70;99.90
14737;DHT22;7459;53.590;10.062;2023-02-13T13:36:03;7.70;99.90
14737;DHT22;7459;53.590;10.062;2023-02-13T13:38:56;7.70;99.90
14737;DHT22;7459;53.590;10.062;2023-02-13T13:44:50;7.70;99.90
14737;DHT22;7459;53.590;10.062;2023-02-13T13:50:39;7.70;99.90
14737;DHT22;7459;53.590;10.062;2023-02-13T13:53:10;7.70;99.90
14737;DHT22;7459;53.590;10.062;2023-02-13T13:58:42;7.70;99.90
14737;DHT22;7459;53.590;10.062;2023-02-13T14:01:22;7.70;99.90
14737;DHT22;7459;53.590;10.062;2023-02-13T14:04:00;7.70;99.90
14737;DHT22;7459;53.590;10.062;2023-02-13T14:11:52;7.70;99.90
14737;DHT22;7459;53.590;10.062;2023-02-13T14:16:56;7.70;99.90
14737;DHT22;7459;53.590;10.062;2023-02-13T14:19:35;7.70;99.90
14737;DHT22;7459;53.590;10.062;2023-02-13T14:25:00;7.70;99.90
14737;DHT22;7459;53.590;10.062;2023-02-13T14:27:34;7.70;99.90
14737;DHT22;7459;53.590;10.062;2023-02-13T14:30:03;7.70;99.90
14737;DHT22;7459;53.590;10.062;2023-02-13T14:35:01;7.70;99.90
14737;DHT22;7459;53.590;10.062;2023-02-13T14:37:37;7.70;99.90
14737;DHT22;7459;53.590;10.062;2023-02-13T14:42:44;7.70;99.90
14737;DHT22;7459;53.590;10.062;2023-02-13T14:45:21;7.60;99.90
14737;DHT22;7459;53.590;10.062;2023-02-13T14:47:53;7.60;99.90
14737;DHT22;7459;53.590;10.062;2023-02-13T14:50:52;7.60;99.90
14737;DHT22;7459;53.590;10.062;2023-02-13T14:53:27;7.60;99.90
14737;DHT22;7459;53.590;10.062;2023-02-13T14:56:05;7.70;99.90
14737;DHT22;7459;53.590;10.062;2023-02-13T14:58:36;7.60;99.90
14737;DHT22;7459;53.590;10.062;2023-02-13T15:01:26;7.60;99.90
14737;DHT22;7459;53.590;10.062;2023-02-13T15:04:12;7.60;99.90
14737;DHT22;7459;53.590;10.062;2023-02-13T15:06:43;7.60;99.90
14737;DHT22;7459;53.590;10.062;2023-02-13T15:09:33;7.60;99.90
14737;DHT22;7459;53.590;10.062;2023-02-13T15:12:03;7.60;99.90
14737;DHT22;7459;53.590;10.062;2023-02-13T15:14:48;7.60;99.90
14737;DHT22;7459;53.590;10.062;2023-02-13T15:17:21;7.60;99.90
14737;DHT22;7459;53.590;10.062;2023-02-13T15:19:51;7.60;99.90
14737;DHT22;7459;53.590;10.062;2023-02-13T15:22:43;7.60;99.90
14737;DHT22;7459;53.590;10.062;2023-02-13T15:25:07;7.50;99.90
14737;DHT22;7459;53.590;10.062;2023-02-13T15:27:39;7.60;99.90
14737;DHT22;7459;53.590;10.062;2023-02-13T15:30:22;7.60;99.90
14737;DHT22;7459;53.590;10.062;2023-02-13T15:35:29;7.50;99.90
14737;DHT22;7459;53.590;10.062;2023-02-13T15:37:56;7.60;99.90
14737;DHT22;7459;53.590;10.062;2023-02-13T15:40:28;7.60;99.90
14737;DHT22;7459;53.590;10.062;2023-02-13T15:42:59;7.60;99.90
14737;DHT22;7459;53.590;10.062;2023-02-13T15:45:27;7.50;99.90
14737;DHT22;7459;53.590;10.062;2023-02-13T15:47:53;7.50;99.90
14737;DHT22;7459;53.590;10.062;2023-02-13T15:50:32;7.50;99.90
14737;DHT22;7459;53.590;10.062;2023-02-13T15:53:03;7.50;99.90
14737;DHT22;7459;53.590;10.062;2023-02-13T15:55:32;7.50;99.90
14737;DHT22;7459;53.590;10.062;2023-02-13T15:57:59;7.40;99.90
14737;DHT22;7459;53.590;10.062;2023-02-13T16:00:38;7.40;99.90
14737;DHT22;7459;53.590;10.062;2023-02-13T16:03:12;7.40;99.90
14737;DHT22;7459;53.590;10.062;2023-02-13T16:05:39;7.40;99.90
14737;DHT22;7459;53.590;10.062;2023-02-13T16:08:28;7.40;99.90
14737;DHT22;7459;53.590;10.062;2023-02-13T16:22:20;7.30;99.90
14737;DHT22;7459;53.590;10.062;2023-02-13T16:24:51;7.30;99.90
14737;DHT22;7459;53.590;10.062;2023-02-13T16:27:25;7.30;99.90
14737;DHT22;7459;53.590;10.062;2023-02-13T16:30:03;7.30;99.90
14737;DHT22;7459;53.590;10.062;2023-02-13T16:32:33;7.30;99.90
14737;DHT22;7459;53.590;10.062;2023-02-13T16:35:29;7.30;99.90
14737;DHT22;7459;53.590;10.062;2023-02-13T16:38:00;7.30;99.90
14737;DHT22;7459;53.590;10.062;2023-02-13T16:40:42;7.30;99.90
14737;DHT22;7459;53.590;10.062;2023-02-13T16:49:17;7.20;99.90
14737;DHT22;7459;53.590;10.062;2023-02-13T16:51:50;7.20;99.90
14737;DHT22;7459;53.590;10.062;2023-02-13T17:04:41;7.10;99.90
14737;DHT22;7459;53.590;10.062;2023-02-13T17:07:12;7.10;99.90
14737;DHT22;7459;53.590;10.062;2023-02-13T17:09:42;7.10;99.90
14737;DHT22;7459;53.590;10.062;2023-02-13T17:12:17;7.10;99.90
14737;DHT22;7459;53.590;10.062;2023-02-13T17:14:43;7.10;99.90
14737;DHT22;7459;53.590;10.062;2023-02-13T17:17:20;7.10;99.90
14737;DHT22;7459;53.590;10.062;2023-02-13T17:19:48;7.10;99.90
14737;DHT22;7459;53.590;10.062;2023-02-13T17:22:38;7.10;99.90
14737;DHT22;7459;53.590;10.062;2023-02-13T17:25:08;7.10;99.90
14737;DHT22;7459;53.590;10.062;2023-02-13T17:27:40;7.10;99.90
14737;DHT22;7459;53.590;10.062;2023-02-13T17:30:17;7.10;99.90
14737;DHT22;7459;53.590;10.062;2023-02-13T17:32:45;7.10;99.90
14737;DHT22;7459;53.590;10.062;2023-02-13T17:35:13;7.10;99.90
14737;DHT22;7459;53.590;10.062;2023-02-13T17:37:40;7.00;99.90
14737;DHT22;7459;53.590;10.062;2023-02-13T17:40:08;7.00;99.90
14737;DHT22;7459;53.590;10.062;2023-02-13T17:42:43;7.10;99.90
14737;DHT22;7459;53.590;10.062;2023-02-13T17:45:13;7.10;99.90
14737;DHT22;7459;53.590;10.062;2023-02-13T17:47:40;7.10;99.90
14737;DHT22;7459;53.590;10.062;2023-02-13T17:50:06;7.10;99.90
14737;DHT22;7459;53.590;10.062;2023-02-13T17:52:32;7.10;99.90
14737;DHT22;7459;53.590;10.062;2023-02-13T17:54:58;7.10;99.90
14737;DHT22;7459;53.590;10.062;2023-02-13T17:57:24;7.10;99.90
14737;DHT22;7459;53.590;10.062;2023-02-13T17:59:50;7.10;99.90
14737;DHT22;7459;53.590;10.062;2023-02-13T18:02:19;7.00;99.90
14737;DHT22;7459;53.590;10.062;2023-02-13T18:04:47;7.00;99.90
14737;DHT22;7459;53.590;10.062;2023-02-13T18:07:16;7.10;99.90
14737;DHT22;7459;53.590;10.062;2023-02-13T18:09:43;7.10;99.90
14737;DHT22;7459;53.590;10.062;2023-02-13T18:12:13;7.10;99.90
14737;DHT22;7459;53.590;10.062;2023-02-13T18:14:45;7.10;99.90
14737;DHT22;7459;53.590;10.062;2023-02-13T18:17:11;7.10;99.90
14737;DHT22;7459;53.590;10.062;2023-02-13T18:19:38;7.10;99.90
14737;DHT22;7459;53.590;10.062;2023-02-13T18:22:05;7.10;99.90
14737;DHT22;7459;53.590;10.062;2023-02-13T18:24:33;7.10;99.90
14737;DHT22;7459;53.590;10.062;2023-02-13T18:27:01;7.10;99.90
14737;DHT22;7459;53.590;10.062;2023-02-13T18:29:27;7.10;99.90
14737;DHT22;7459;53.590;10.062;2023-02-13T18:31:53;7.10;99.90
14737;DHT22;7459;53.590;10.062;2023-02-13T18:34:21;7.10;99.90
14737;DHT22;7459;53.590;10.062;2023-02-13T18:36:48;7.10;99.90
14737;DHT22;7459;53.590;10.062;2023-02-13T18:39:15;7.10;99.90
14737;DHT22;7459;53.590;10.062;2023-02-13T18:41:41;7.10;99.90
14737;DHT22;7459;53.590;10.062;2023-02-13T18:44:07;7.00;99.90
14737;DHT22;7459;53.590;10.062;2023-02-13T18:46:34;7.00;99.90
14737;DHT22;7459;53.590;10.062;2023-02-13T18:48:59;7.10;99.90
14737;DHT22;7459;53.590;10.062;2023-02-13T18:51:25;7.00;99.90
14737;DHT22;7459;53.590;10.062;2023-02-13T18:53:51;7.00;99.90
14737;DHT22;7459;53.590;10.062;2023-02-13T18:56:17;7.00;99.90
14737;DHT22;7459;53.590;10.062;2023-02-13T18:58:45;7.00;99.90
14737;DHT22;7459;53.590;10.062;2023-02-13T19:01:13;7.00;99.90
14737;DHT22;7459;53.590;10.062;2023-02-13T19:03:46;7.00;99.90